Time;durP1;ratioP1;P1;durP2;ratioP2;P2;SDS_P1;SDS_P2;PMS_P1;PMS_P2;Temp;Humidity;BMP_temperature;BMP_pressure;BME280_temperature;BME280_humidity;BME280_pressure;Samples;Min_cycle;Max_cycle;Signal;HPM_P1;HPM_P2
2023/07/13 00:00:50;;;;;;;5.80;0.70;;;;;;;18.32;100.00;99681.83;104660;1260;67357;-52
2023/07/13 00:03:17;;;;;;;1.90;0.70;;;;;;;18.32;100.00;99677.55;104843;1256;70455;-51
2023/07/13 00:05:45;;;;;;;2.70;0.60;;;;;;;18.31;100.00;99669.77;104862;1254;62172;-52
2023/07/13 00:08:12;;;;;;;0.60;0.60;;;;;;;18.31;100.00;99666.48;104820;1256;61452;-52
2023/07/13 00:10:41;;;;;;;0.60;0.50;;;;;;;18.31;100.00;99663.62;104895;1256;73827;-52
2023/07/13 00:13:08;;;;;;;1.50;0.70;;;;;;;18.30;100.00;99660.21;104993;1259;68076;-49
2023/07/13 00:15:36;;;;;;;3.00;0.50;;;;;;;18.31;100.00;99659.18;104920;1261;72702;-51
2023/07/13 00:18:03;;;;;;;1.80;0.60;;;;;;;18.33;100.00;99651.25;104952;1256;60585;-49
2023/07/13 00:20:32;;;;;;;1.80;0.70;;;;;;;18.34;100.00;99648.45;104920;1256;62369;-48
2023/07/13 00:22:59;;;;;;;1.00;0.70;;;;;;;18.35;100.00;99641.29;104918;1256;73788;-50
2023/07/13 00:25:30;;;;;;;1.40;1.10;;;;;;;18.35;100.00;99638.91;104950;1258;69317;-50
2023/07/13 00:27:58;;;;;;;0.80;0.60;;;;;;;18.35;100.00;99634.74;105019;1259;72713;-48
2023/07/13 00:30:25;;;;;;;5.80;0.60;;;;;;;18.35;100.00;99630.59;105014;1256;60431;-48
2023/07/13 00:32:53;;;;;;;1.20;0.60;;;;;;;18.33;100.00;99627.63;105137;1259;60742;-51
2023/07/13 00:35:43;;;;;;;4.60;0.60;;;;;;;18.30;100.00;99627.88;104988;1259;72662;-49
2023/07/13 00:38:12;;;;;;;0.90;0.60;;;;;;;18.28;100.00;99632.42;105138;1256;68835;-49
2023/07/13 00:40:40;;;;;;;0.80;0.80;;;;;;;18.25;100.00;99633.36;105828;1258;71424;-49
2023/07/13 00:43:19;;;;;;;3.40;0.80;;;;;;;18.24;100.00;99637.70;104966;1260;60941;-50
2023/07/13 00:45:47;;;;;;;0.70;0.60;;;;;;;18.21;100.00;99633.18;104961;1258;60570;-49
2023/07/13 00:48:21;;;;;;;2.20;0.60;;;;;;;18.17;100.00;99628.05;105272;1256;72670;-49
2023/07/13 00:50:50;;;;;;;1.00;0.60;;;;;;;18.14;100.00;99625.34;104438;1263;67807;-49
2023/07/13 00:53:18;;;;;;;0.70;0.60;;;;;;;18.12;100.00;99629.48;104994;1256;70605;-50
2023/07/13 00:55:47;;;;;;;1.10;0.60;;;;;;;18.11;100.00;99626.52;104753;1261;60500;-51
2023/07/13 00:58:15;;;;;;;1.30;0.50;;;;;;;18.10;100.00;99627.86;104763;1256;60886;-48
2023/07/13 01:00:43;;;;;;;2.70;0.90;;;;;;;18.09;100.00;99626.52;104764;1260;74379;-49
2023/07/13 01:03:10;;;;;;;1.30;0.80;;;;;;;18.08;100.00;99628.95;104702;1255;66050;-49
2023/07/13 01:05:39;;;;;;;0.80;0.70;;;;;;;18.08;100.00;99628.23;104740;1256;72675;-52
2023/07/13 01:08:06;;;;;;;0.90;0.70;;;;;;;18.08;100.00;99626.80;105272;1255;60539;-50
2023/07/13 01:10:38;;;;;;;4.90;1.00;;;;;;;18.06;100.00;99626.95;104751;1256;60488;-50
2023/07/13 01:13:07;;;;;;;3.00;0.90;;;;;;;18.04;100.00;99619.64;105255;1257;72594;-51
2023/07/13 01:15:37;;;;;;;3.10;0.80;;;;;;;18.02;100.00;99614.71;104934;1256;66099;-51
2023/07/13 01:18:11;;;;;;;6.90;1.80;;;;;;;18.01;100.00;99616.86;104852;1260;73181;-51
2023/07/13 01:20:39;;;;;;;2.00;0.80;;;;;;;17.98;100.00;99615.77;105724;1260;60650;-51
2023/07/13 01:23:07;;;;;;;1.10;0.70;;;;;;;17.96;100.00;99616.67;104921;1261;60400;-48
2023/07/13 01:25:35;;;;;;;2.60;0.90;;;;;;;17.93;100.00;99615.50;104921;1256;71939;-50
2023/07/13 01:28:04;;;;;;;1.90;0.70;;;;;;;17.91;100.00;99611.81;108754;1256;65701;-51
2023/07/13 01:30:31;;;;;;;5.60;1.00;;;;;;;17.90;100.00;99606.30;108902;1255;73690;-50
2023/07/13 01:33:01;;;;;;;1.50;0.70;;;;;;;17.90;100.00;99608.46;108947;1255;60689;-51
2023/07/13 01:35:29;;;;;;;8.70;1.40;;;;;;;17.91;100.00;99612.20;108793;1255;61888;-51
2023/07/13 01:37:56;;;;;;;1.20;0.80;;;;;;;17.93;100.00;99609.84;108991;1255;71875;-52
2023/07/13 01:40:24;;;;;;;6.40;0.80;;;;;;;17.96;100.00;99613.09;108932;1253;69084;-51
2023/07/13 01:42:52;;;;;;;1.60;1.00;;;;;;;17.96;100.00;99617.21;109144;1254;72655;-51
2023/07/13 01:45:20;;;;;;;3.40;0.90;;;;;;;17.97;100.00;99621.88;109069;1256;60078;-50
2023/07/13 01:47:47;;;;;;;0.90;0.80;;;;;;;17.97;100.00;99624.23;109064;1253;60153;-50
2023/07/13 01:50:15;;;;;;;3.40;0.80;;;;;;;17.97;100.00;99623.70;109009;1253;73846;-50
2023/07/13 01:52:42;;;;;;;0.80;0.60;;;;;;;17.97;100.00;99621.90;109024;1253;66784;-50
2023/07/13 01:57:43;;;;;;;2.80;0.70;;;;;;;17.96;100.00;99614.55;101899;1292;600684;-49
2023/07/13 02:00:11;;;;;;;1.40;0.80;;;;;;;17.93;100.00;99616.95;104118;1263;61774;-49
2023/07/13 02:02:47;;;;;;;1.20;0.80;;;;;;;17.92;100.00;99608.50;104363;1263;60154;-49
2023/07/13 02:05:14;;;;;;;2.80;0.70;;;;;;;17.91;100.00;99614.19;104372;1269;69862;-50
2023/07/13 02:07:42;;;;;;;1.10;0.70;;;;;;;17.91;100.00;99611.30;104186;1263;66927;-50
2023/07/13 02:10:10;;;;;;;4.30;0.90;;;;;;;17.91;100.00;99608.36;104287;1263;71320;-49
2023/07/13 02:12:37;;;;;;;2.40;0.70;;;;;;;17.91;100.00;99608.36;105742;1266;60040;-49
2023/07/13 02:15:05;;;;;;;1.10;0.80;;;;;;;17.91;100.00;99604.93;104373;1266;59433;-49
2023/07/13 02:17:34;;;;;;;1.90;1.20;;;;;;;17.91;100.00;99607.11;104551;1266;71467;-49
2023/07/13 02:20:03;;;;;;;1.10;0.90;;;;;;;17.91;100.00;99605.34;104687;1261;67717;-49
2023/07/13 02:22:30;;;;;;;1.00;0.70;;;;;;;17.89;100.00;99601.99;104323;1262;71948;-47
2023/07/13 02:24:57;;;;;;;2.00;0.80;;;;;;;17.88;100.00;99603.36;104533;1260;59840;-48
2023/07/13 02:27:25;;;;;;;1.00;0.70;;;;;;;17.86;100.00;99605.12;104325;1267;59976;-48
2023/07/13 02:29:53;;;;;;;1.50;0.90;;;;;;;17.85;100.00;99604.39;104605;1260;71820;-47
2023/07/13 02:32:21;;;;;;;1.10;0.70;;;;;;;17.83;100.00;99609.05;104848;1262;66850;-47
2023/07/13 02:34:52;;;;;;;1.10;0.60;;;;;;;17.82;100.00;99607.10;104180;1266;72964;-49
2023/07/13 02:37:19;;;;;;;0.90;0.60;;;;;;;17.82;100.00;99603.66;104527;1263;62558;-48
2023/07/13 02:39:47;;;;;;;0.70;0.70;;;;;;;17.83;100.00;99606.52;104215;1268;59684;-48
2023/07/13 02:42:15;;;;;;;2.10;1.10;;;;;;;17.84;100.00;99607.73;104650;1266;73049;-48
2023/07/13 02:44:42;;;;;;;2.90;0.80;;;;;;;17.84;100.00;99606.77;104092;1269;67541;-47
2023/07/13 02:47:10;;;;;;;3.70;0.70;;;;;;;17.85;100.00;99606.91;104231;1267;72904;-48
2023/07/13 02:49:37;;;;;;;0.80;0.60;;;;;;;17.86;100.00;99604.12;104471;1260;60615;-51
2023/07/13 02:52:05;;;;;;;0.70;0.70;;;;;;;17.87;100.00;99602.17;104395;1262;60033;-49
2023/07/13 02:54:32;;;;;;;1.50;0.60;;;;;;;17.89;100.00;99600.71;104967;1266;73960;-50
2023/07/13 02:57:00;;;;;;;0.90;0.60;;;;;;;17.92;100.00;99603.96;104282;1270;65464;-48
2023/07/13 02:59:27;;;;;;;0.80;0.60;;;;;;;17.95;100.00;99601.30;104339;1263;73107;-49
2023/07/13 03:01:55;;;;;;;1.60;0.60;;;;;;;17.99;100.00;99598.69;104382;1263;60504;-50
2023/07/13 03:04:22;;;;;;;0.80;0.60;;;;;;;18.01;100.00;99598.86;104230;1262;60363;-49
2023/07/13 03:06:49;;;;;;;0.90;0.60;;;;;;;18.05;100.00;99604.89;104153;1263;72986;-49
2023/07/13 03:09:17;;;;;;;2.00;0.70;;;;;;;18.08;100.00;99598.80;104207;1261;66805;-48
2023/07/13 03:11:52;;;;;;;0.80;0.50;;;;;;;18.13;100.00;99603.68;104259;1262;73626;-50
2023/07/13 03:14:25;;;;;;;3.90;0.70;;;;;;;18.19;100.00;99603.23;104412;1267;61825;-49
2023/07/13 03:16:52;;;;;;;0.90;0.60;;;;;;;18.25;100.00;99602.00;104417;1267;59555;-50
2023/07/13 03:19:22;;;;;;;1.00;0.60;;;;;;;18.31;100.00;99602.54;104625;1268;72695;-49
2023/07/13 03:21:50;;;;;;;0.90;0.70;;;;;;;18.37;100.00;99605.27;103848;1263;67589;-49
2023/07/13 03:24:17;;;;;;;1.50;0.60;;;;;;;18.44;100.00;99605.44;103953;1263;71444;-49
2023/07/13 03:26:45;;;;;;;0.60;0.60;;;;;;;18.51;100.00;99609.79;104123;1263;59650;-49
2023/07/13 03:29:12;;;;;;;1.10;0.60;;;;;;;18.56;100.00;99608.63;103681;1263;60678;-48
2023/07/13 03:31:40;;;;;;;0.80;0.60;;;;;;;18.61;100.00;99609.73;103709;1263;71090;-50
2023/07/13 03:34:07;;;;;;;0.70;0.50;;;;;;;18.65;100.00;99603.58;103878;1263;66615;-49
2023/07/13 03:36:35;;;;;;;0.60;0.60;;;;;;;18.68;100.00;99600.38;104071;1263;70913;-47
2023/07/13 03:39:08;;;;;;;1.90;0.50;;;;;;;18.71;100.00;99599.23;104052;1260;61311;-49
2023/07/13 03:41:42;;;;;;;0.80;0.50;;;;;;;18.74;100.00;99597.30;104891;1260;61116;-46
2023/07/13 03:44:11;;;;;;;1.20;0.60;;;;;;;18.78;100.00;99593.36;104439;1262;73121;-48
2023/07/13 03:46:39;;;;;;;0.70;0.60;;;;;;;18.83;100.00;99592.21;104463;1266;66297;-49
2023/07/13 03:49:07;;;;;;;2.00;0.60;;;;;;;18.90;100.00;99591.59;104731;1265;70660;-50
2023/07/13 03:51:35;;;;;;;0.60;0.50;;;;;;;18.98;100.00;99594.54;104321;1260;59720;-48
2023/07/13 03:54:04;;;;;;;3.20;0.60;;;;;;;19.05;100.00;99593.91;104368;1260;60044;-50
2023/07/13 03:56:32;;;;;;;0.90;0.50;;;;;;;19.13;100.00;99593.82;104378;1265;73055;-50
2023/07/13 03:59:02;;;;;;;0.60;0.50;;;;;;;19.19;100.00;99595.45;105180;1263;68066;-50
2023/07/13 04:01:29;;;;;;;0.60;0.60;;;;;;;19.26;100.00;99599.60;105102;1265;72929;-49
2023/07/13 04:03:57;;;;;;;0.80;0.60;;;;;;;19.32;100.00;99599.08;104390;1259;59639;-50
2023/07/13 04:06:30;;;;;;;2.30;0.60;;;;;;;19.37;100.00;99598.30;104323;1264;59708;-49
2023/07/13 04:08:59;;;;;;;2.60;0.60;;;;;;;19.39;100.00;99602.30;104372;1265;71436;-50
2023/07/13 04:11:28;;;;;;;1.70;0.60;;;;;;;19.40;100.00;99598.70;104424;1260;65816;-50
2023/07/13 04:13:55;;;;;;;1.60;0.50;;;;;;;19.41;100.00;99601.14;104712;1260;72677;-50
2023/07/13 04:16:23;;;;;;;0.80;0.60;;;;;;;19.43;100.00;99600.12;104384;1262;60132;-49
2023/07/13 04:18:54;;;;;;;1.00;0.60;;;;;;;19.43;100.00;99596.42;105189;1261;59750;-51
2023/07/13 04:21:22;;;;;;;2.00;0.70;;;;;;;19.45;100.00;99598.85;106337;1262;73054;-51
2023/07/13 04:23:49;;;;;;;4.30;0.60;;;;;;;19.46;100.00;99603.98;104613;1257;67071;-51
2023/07/13 04:26:17;;;;;;;0.70;0.60;;;;;;;19.48;100.00;99600.05;104829;1260;71457;-49
2023/07/13 04:28:44;;;;;;;1.20;0.60;;;;;;;19.51;100.00;99601.42;104828;1257;62151;-49
2023/07/13 04:31:11;;;;;;;0.80;0.60;;;;;;;19.55;100.00;99599.58;104710;1257;60385;-49
2023/07/13 04:33:39;;;;;;;0.50;0.50;;;;;;;19.62;100.00;99605.20;104772;1257;72044;-50
2023/07/13 04:36:07;;;;;;;0.60;0.60;;;;;;;19.69;100.00;99608.92;104813;1262;66711;-50
2023/07/13 04:38:35;;;;;;;2.00;0.60;;;;;;;19.77;100.00;99614.45;104712;1261;72642;-52
2023/07/13 04:41:04;;;;;;;0.60;0.60;;;;;;;19.84;100.00;99615.04;104742;1257;60035;-52
2023/07/13 04:43:31;;;;;;;1.00;0.50;;;;;;;19.93;100.00;99611.74;104478;1257;59996;-50
2023/07/13 04:46:10;;;;;;;2.10;0.50;;;;;;;20.01;100.00;99610.08;108779;1254;72107;-52
2023/07/13 04:48:38;;;;;;;1.50;0.60;;;;;;;20.09;100.00;99611.33;106862;1262;66959;-49
2023/07/13 04:51:06;;;;;;;0.90;0.60;;;;;;;20.17;100.00;99607.88;104671;1260;70437;-49
2023/07/13 04:53:34;;;;;;;3.10;0.50;;;;;;;20.25;100.00;99609.00;104638;1262;60298;-49
2023/07/13 04:56:02;;;;;;;2.50;0.60;;;;;;;20.32;100.00;99613.64;104976;1262;59592;-48
2023/07/13 04:58:30;;;;;;;0.60;0.60;;;;;;;20.39;100.00;99621.60;104957;1257;72992;-48
2023/07/13 05:01:04;;;;;;;1.60;0.60;;;;;;;20.44;100.00;99619.01;104941;1258;67532;-49
2023/07/13 05:03:32;;;;;;;0.60;0.60;;;;;;;20.46;100.00;99623.91;106087;1260;71391;-51
2023/07/13 05:06:02;;;;;;;1.70;0.70;;;;;;;20.49;100.00;99629.69;105000;1257;60019;-50
2023/07/13 05:08:30;;;;;;;3.90;0.60;;;;;;;20.51;100.00;99626.89;105105;1257;59589;-51
2023/07/13 05:10:59;;;;;;;0.90;0.70;;;;;;;20.53;100.00;99625.02;104998;1260;71731;-49
2023/07/13 05:13:27;;;;;;;1.30;0.90;;;;;;;20.56;100.00;99627.00;104987;1257;66791;-50
2023/07/13 05:16:01;;;;;;;0.60;0.60;;;;;;;20.57;100.00;99630.75;105846;1258;74350;-51
2023/07/13 05:18:29;;;;;;;1.00;0.50;;;;;;;20.58;100.00;99628.48;108924;1258;58624;-50
2023/07/13 05:21:07;;;;;;;0.60;0.60;;;;;;;20.59;100.00;99630.31;108753;1257;59942;-52
2023/07/13 05:23:35;;;;;;;1.70;0.70;;;;;;;20.62;100.00;99627.30;107015;1258;73534;-49
2023/07/13 05:26:03;;;;;;;0.60;0.50;;;;;;;20.65;100.00;99621.21;104846;1257;65815;-47
2023/07/13 05:28:35;;;;;;;0.80;0.50;;;;;;;20.68;100.00;99617.62;105791;1257;71068;-50
2023/07/13 05:31:03;;;;;;;0.70;0.60;;;;;;;20.73;100.00;99613.19;104995;1257;60322;-48
2023/07/13 05:33:31;;;;;;;2.10;0.70;;;;;;;20.78;100.00;99614.88;104986;1261;59672;-51
2023/07/13 05:36:00;;;;;;;1.60;0.60;;;;;;;20.82;100.00;99617.66;104840;1257;71657;-51
2023/07/13 05:38:28;;;;;;;0.60;0.60;;;;;;;20.86;100.00;99616.56;105480;1257;66867;-49
2023/07/13 05:40:55;;;;;;;1.70;0.60;;;;;;;20.89;100.00;99624.45;104663;1258;72433;-50
2023/07/13 05:43:23;;;;;;;1.10;0.60;;;;;;;20.90;100.00;99629.08;104755;1257;59804;-50
2023/07/13 05:45:52;;;;;;;1.20;0.50;;;;;;;20.92;100.00;99626.94;104541;1258;59996;-51
2023/07/13 05:48:20;;;;;;;1.70;0.60;;;;;;;20.92;100.00;99626.52;104761;1257;73074;-50
2023/07/13 05:50:47;;;;;;;0.80;0.50;;;;;;;20.94;100.00;99623.39;104858;1256;65501;-50
2023/07/13 05:53:15;;;;;;;2.20;0.60;;;;;;;20.97;100.00;99625.51;104659;1260;72664;-49
2023/07/13 05:55:43;;;;;;;1.10;0.60;;;;;;;21.00;100.00;99622.69;104845;1260;59792;-50
2023/07/13 05:58:11;;;;;;;2.10;0.60;;;;;;;21.05;100.00;99620.77;104716;1257;62851;-48
2023/07/13 06:00:38;;;;;;;1.80;0.60;;;;;;;21.12;100.00;99617.19;105270;1259;73042;-51
2023/07/13 06:03:06;;;;;;;0.80;0.50;;;;;;;21.20;100.00;99617.59;104817;1252;65725;-52
2023/07/13 06:05:35;;;;;;;1.90;0.60;;;;;;;21.30;100.00;99612.23;106131;1259;72656;-53
2023/07/13 06:08:03;;;;;;;3.70;0.80;;;;;;;21.42;100.00;99608.67;105249;1254;60442;-52
2023/07/13 06:10:35;;;;;;;2.50;0.60;;;;;;;21.53;100.00;99599.80;105078;1254;60289;-49
2023/07/13 06:13:03;;;;;;;5.50;0.70;;;;;;;21.61;100.00;99596.07;105205;1259;74263;-52
2023/07/13 06:15:30;;;;;;;1.90;0.70;;;;;;;21.69;100.00;99598.56;104981;1253;66885;-52
2023/07/13 06:17:57;;;;;;;4.20;0.70;;;;;;;21.78;100.00;99598.44;105082;1259;73358;-50
2023/07/13 06:20:25;;;;;;;8.00;0.80;;;;;;;21.86;100.00;99600.04;104923;1257;60539;-49
2023/07/13 06:22:52;;;;;;;1.20;0.60;;;;;;;21.94;100.00;99600.90;105068;1254;62496;-51
2023/07/13 06:25:20;;;;;;;2.10;0.70;;;;;;;22.02;100.00;99597.45;105291;1257;72639;-50
2023/07/13 06:27:47;;;;;;;2.60;0.60;;;;;;;22.09;100.00;99598.71;105061;1254;67121;-49
2023/07/13 06:30:14;;;;;;;3.70;0.70;;;;;;;22.16;100.00;99599.46;105042;1258;71380;-51
2023/07/13 06:32:42;;;;;;;5.70;0.70;;;;;;;22.24;100.00;99599.97;105020;1255;60610;-50
2023/07/13 06:35:12;;;;;;;1.00;0.70;;;;;;;22.31;100.00;99597.08;105342;1251;60739;-51
2023/07/13 06:37:40;;;;;;;5.20;0.70;;;;;;;22.40;100.00;99595.59;105153;1252;72639;-50
2023/07/13 06:40:08;;;;;;;3.40;0.70;;;;;;;22.51;100.00;99599.45;105153;1253;66132;-48
2023/07/13 06:42:35;;;;;;;5.70;0.60;;;;;;;22.61;100.00;99601.84;105080;1254;73581;-53
2023/07/13 06:45:02;;;;;;;5.50;0.90;;;;;;;22.70;100.00;99608.11;105117;1258;60508;-52
2023/07/13 06:47:30;;;;;;;2.60;0.60;;;;;;;22.79;100.00;99610.54;105181;1256;60556;-54
2023/07/13 06:50:00;;;;;;;11.80;0.90;;;;;;;22.89;100.00;99615.20;105132;1251;72054;-52
2023/07/13 06:52:28;;;;;;;3.10;0.60;;;;;;;22.96;100.00;99612.64;105194;1250;66099;-52
2023/07/13 06:54:55;;;;;;;3.20;0.70;;;;;;;23.03;100.00;99611.79;105118;1258;72762;-53
2023/07/13 06:57:22;;;;;;;2.70;0.70;;;;;;;23.07;100.00;99609.66;105212;1255;60564;-51
2023/07/13 06:59:50;;;;;;;4.50;0.60;;;;;;;23.11;100.00;99606.68;105319;1251;60580;-51
2023/07/13 07:02:17;;;;;;;2.60;0.50;;;;;;;23.15;100.00;99606.30;104935;1257;73870;-49
2023/07/13 07:04:44;;;;;;;1.30;0.60;;;;;;;23.17;100.00;99607.88;105136;1258;66674;-52
2023/07/13 07:07:11;;;;;;;1.50;0.60;;;;;;;23.19;100.00;99611.39;105180;1253;72648;-51
2023/07/13 07:09:39;;;;;;;2.40;1.10;;;;;;;23.18;100.00;99610.90;104899;1254;60485;-48
2023/07/13 07:12:07;;;;;;;1.50;0.50;;;;;;;23.18;100.00;99608.73;105130;1251;60424;-49
2023/07/13 07:14:34;;;;;;;0.70;0.50;;;;;;;23.17;100.00;99609.95;104989;1254;72720;-50
2023/07/13 07:17:02;;;;;;;0.90;0.60;;;;;;;23.15;100.00;99605.38;104961;1256;66026;-50
2023/07/13 07:19:29;;;;;;;2.70;0.60;;;;;;;23.16;100.00;99604.55;105124;1259;71620;-52
2023/07/13 07:21:57;;;;;;;4.40;0.60;;;;;;;23.17;100.00;99598.98;105000;1251;60379;-52
2023/07/13 07:24:24;;;;;;;5.60;0.60;;;;;;;23.19;100.00;99596.01;105070;1254;60366;-50
2023/07/13 07:26:51;;;;;;;2.00;0.60;;;;;;;23.21;100.00;99593.53;104971;1253;73844;-52
2023/07/13 07:29:22;;;;;;;1.70;0.60;;;;;;;23.26;100.00;99595.63;105438;1255;68978;-51
2023/07/13 07:31:55;;;;;;;0.80;0.60;;;;;;;23.32;100.00;99596.27;105865;1257;73193;-51
2023/07/13 07:34:25;;;;;;;2.10;0.50;;;;;;;23.41;100.00;99597.40;104879;1259;62733;-51
2023/07/13 07:36:53;;;;;;;1.20;0.60;;;;;;;23.51;100.00;99595.10;104841;1253;60447;-51
2023/07/13 07:39:23;;;;;;;1.70;0.50;;;;;;;23.63;100.00;99595.64;105524;1253;73202;-51
2023/07/13 07:41:51;;;;;;;1.60;0.60;;;;;;;23.75;100.00;99599.34;104829;1252;66042;-51
2023/07/13 07:44:21;;;;;;;3.80;0.60;;;;;;;23.84;100.00;99602.70;104940;1259;71953;-50
2023/07/13 07:46:49;;;;;;;1.80;0.50;;;;;;;23.92;100.00;99602.64;105416;1259;60592;-51
2023/07/13 07:49:16;;;;;;;3.80;0.70;;;;;;;24.00;100.00;99601.08;104836;1259;60537;-50
2023/07/13 07:51:44;;;;;;;0.80;0.60;;;;;;;24.09;100.00;99598.89;104871;1259;73874;-51
2023/07/13 07:54:11;;;;;;;1.50;0.60;;;;;;;24.22;100.00;99596.85;105034;1251;65603;-49
2023/07/13 07:56:53;;;;;;;1.20;0.70;;;;;;;24.36;100.00;99597.36;104721;1261;72686;-48
2023/07/13 07:59:23;;;;;;;2.20;0.70;;;;;;;24.50;100.00;99598.08;104908;1258;60655;-51
2023/07/13 08:01:53;;;;;;;2.70;0.80;;;;;;;24.65;100.00;99596.39;108956;1253;60024;-50
2023/07/13 08:04:23;;;;;;;5.00;0.60;;;;;;;24.78;100.00;99593.11;109048;1253;73898;-52
2023/07/13 08:06:56;;;;;;;3.40;0.60;;;;;;;24.89;100.00;99589.73;109067;1253;66766;-51
2023/07/13 08:09:23;;;;;;;0.60;0.60;;;;;;;24.96;100.00;99584.05;109014;1254;72451;-51
2023/07/13 08:11:52;;;;;;;0.80;0.60;;;;;;;25.00;100.00;99584.34;109007;1253;60076;-51
2023/07/13 08:14:22;;;;;;;0.70;0.60;;;;;;;25.01;100.00;99579.59;109201;1253;58793;-49
2023/07/13 08:16:50;;;;;;;4.00;0.80;;;;;;;25.04;100.00;99581.07;109070;1251;74275;-51
2023/07/13 08:19:17;;;;;;;2.40;0.60;;;;;;;25.06;100.00;99585.77;109047;1253;67250;-51
2023/07/13 08:21:44;;;;;;;3.40;0.70;;;;;;;25.09;100.00;99586.92;109022;1253;72679;-51
2023/07/13 08:24:12;;;;;;;3.80;0.60;;;;;;;25.13;100.00;99587.55;109091;1253;58820;-51
2023/07/13 08:26:39;;;;;;;2.00;0.70;;;;;;;25.18;100.00;99588.31;109059;1253;59022;-52
2023/07/13 08:29:06;;;;;;;1.80;0.50;;;;;;;25.21;100.00;99589.80;107010;1259;72969;-50
2023/07/13 08:31:34;;;;;;;2.30;0.80;;;;;;;25.24;100.00;99582.09;104880;1254;66533;-50
2023/07/13 08:34:02;;;;;;;0.80;0.60;;;;;;;25.28;100.00;99581.67;105634;1257;71449;-49
2023/07/13 08:36:29;;;;;;;0.70;0.50;;;;;;;25.32;100.00;99579.81;104788;1255;60323;-50
2023/07/13 08:38:57;;;;;;;3.30;0.80;;;;;;;25.39;100.00;99579.16;104626;1253;60458;-50
2023/07/13 08:41:24;;;;;;;0.70;0.70;;;;;;;25.50;100.00;99575.61;104800;1260;72240;-50
2023/07/13 08:43:54;;;;;;;2.50;0.60;;;;;;;25.63;100.00;99568.94;104952;1259;66883;-50
2023/07/13 08:46:36;;;;;;;1.90;0.60;;;;;;;25.75;100.00;99568.64;105307;1259;72633;-52
2023/07/13 08:49:16;;;;;;;2.60;0.60;;;;;;;25.90;100.00;99563.83;105431;1254;60458;-50
2023/07/13 08:51:47;;;;;;;0.70;0.60;;;;;;;26.00;100.00;99561.61;104944;1258;61070;-51
2023/07/13 08:54:33;;;;;;;2.80;0.50;;;;;;;26.07;100.00;99559.84;104857;1259;72596;-49
2023/07/13 08:57:10;;;;;;;1.80;0.60;;;;;;;26.09;100.00;99559.95;104632;1253;67059;-51
2023/07/13 08:59:37;;;;;;;4.10;0.70;;;;;;;26.09;100.00;99564.02;104938;1259;72957;-52
2023/07/13 09:02:17;;;;;;;1.90;0.60;;;;;;;26.04;100.00;99562.49;105017;1257;60550;-50
2023/07/13 09:05:08;;;;;;;0.90;0.70;;;;;;;25.99;100.00;99561.45;104755;1256;60482;-48
2023/07/13 09:07:45;;;;;;;2.90;0.60;;;;;;;25.94;100.00;99562.61;105081;1258;74268;-51
2023/07/13 09:10:45;;;;;;;0.60;0.50;;;;;;;25.88;100.00;99560.45;104761;1258;65551;-51
2023/07/13 09:13:26;;;;;;;1.90;0.80;;;;;;;25.85;100.00;99558.51;104896;1257;73147;-47
2023/07/13 09:15:53;;;;;;;0.60;0.50;;;;;;;25.81;100.00;99559.05;105117;1259;60517;-52
2023/07/13 09:18:35;;;;;;;3.60;0.70;;;;;;;25.80;100.00;99555.44;104807;1253;60657;-50
2023/07/13 09:21:24;;;;;;;3.70;0.70;;;;;;;25.77;100.00;99555.73;104986;1258;73883;-50
2023/07/13 09:23:58;;;;;;;0.90;0.60;;;;;;;25.74;100.00;99560.66;104535;1259;66947;-53
2023/07/13 09:26:26;;;;;;;1.90;0.70;;;;;;;25.72;100.00;99562.00;105679;1260;72620;-50
2023/07/13 09:28:57;;;;;;;1.50;0.60;;;;;;;25.74;100.00;99560.35;104948;1261;60553;-52
2023/07/13 09:31:37;;;;;;;0.80;0.70;;;;;;;25.80;100.00;99558.16;105460;1254;60477;-52
2023/07/13 09:34:09;;;;;;;1.90;0.90;;;;;;;25.89;100.00;99559.66;104918;1259;71893;-49
2023/07/13 09:36:37;;;;;;;1.00;0.60;;;;;;;26.02;100.00;99557.62;105245;1263;66901;-51
2023/07/13 09:39:07;;;;;;;1.10;0.80;;;;;;;26.14;100.00;99553.95;105062;1259;70897;-51
2023/07/13 09:41:44;;;;;;;1.10;0.80;;;;;;;26.24;100.00;99548.16;104870;1258;60810;-53
2023/07/13 09:44:16;;;;;;;0.90;0.60;;;;;;;26.33;100.00;99544.55;105164;1253;60531;-50
2023/07/13 09:46:45;;;;;;;2.00;0.60;;;;;;;26.43;100.00;99539.55;105060;1253;73943;-52
2023/07/13 09:49:13;;;;;;;0.80;0.60;;;;;;;26.55;100.00;99528.79;104980;1258;65504;-52
2023/07/13 09:51:40;;;;;;;0.70;0.60;;;;;;;26.67;100.00;99528.81;104941;1259;72403;-52
2023/07/13 09:54:24;;;;;;;0.90;0.60;;;;;;;26.78;100.00;99527.16;105166;1259;60559;-49
2023/07/13 09:56:56;;;;;;;1.00;0.60;;;;;;;26.88;100.00;99532.89;105000;1254;60509;-51
2023/07/13 09:59:28;;;;;;;1.00;0.60;;;;;;;26.99;100.00;99530.83;105084;1258;73822;-51
2023/07/13 10:01:56;;;;;;;1.20;0.60;;;;;;;27.06;100.00;99525.95;104828;1260;65652;-52
2023/07/13 10:04:33;;;;;;;0.70;0.60;;;;;;;27.10;100.00;99527.09;104864;1262;73143;-50
2023/07/13 10:07:06;;;;;;;2.70;0.60;;;;;;;27.18;100.00;99514.97;104971;1258;60562;-53
2023/07/13 10:09:54;;;;;;;3.30;0.60;;;;;;;27.28;100.00;99505.00;104911;1259;60454;-52
2023/07/13 10:12:24;;;;;;;0.80;0.60;;;;;;;27.39;100.00;99503.82;105190;1255;73896;-51
2023/07/13 10:14:54;;;;;;;1.80;0.60;;;;;;;27.49;100.00;99503.00;105066;1260;66946;-51
2023/07/13 10:17:40;;;;;;;1.50;0.60;;;;;;;27.57;100.00;99499.32;106563;1259;71187;-51
2023/07/13 10:20:12;;;;;;;1.50;0.60;;;;;;;27.60;100.00;99495.59;104844;1262;60400;-50
2023/07/13 10:23:03;;;;;;;1.00;0.60;;;;;;;27.63;100.00;99491.21;104952;1258;60720;-51
2023/07/13 10:25:35;;;;;;;1.40;0.50;;;;;;;27.67;100.00;99485.80;105574;1260;73828;-49
2023/07/13 10:28:30;;;;;;;1.80;0.60;;;;;;;27.73;100.00;99479.54;106771;1257;65592;-51
2023/07/13 10:30:58;;;;;;;0.60;0.60;;;;;;;27.79;100.00;99475.55;104583;1259;72797;-53
2023/07/13 10:33:26;;;;;;;0.80;0.70;;;;;;;27.85;100.00;99471.07;104727;1254;60370;-51
2023/07/13 10:36:12;;;;;;;1.00;0.70;;;;;;;27.92;100.00;99465.00;108673;1254;59960;-51
2023/07/13 10:38:43;;;;;;;1.30;0.50;;;;;;;28.00;100.00;99461.38;104670;1260;73772;-52
2023/07/13 10:41:14;;;;;;;0.80;0.60;;;;;;;28.07;100.00;99463.33;104448;1255;65694;-52
2023/07/13 10:43:43;;;;;;;0.80;0.60;;;;;;;28.13;100.00;99458.35;105139;1260;73052;-51
2023/07/13 10:46:15;;;;;;;0.70;0.60;;;;;;;28.17;100.00;99459.40;104938;1258;60508;-51
2023/07/13 10:48:44;;;;;;;2.00;0.70;;;;;;;28.20;100.00;99450.03;104692;1259;60450;-52
2023/07/13 10:51:14;;;;;;;0.90;0.60;;;;;;;28.21;100.00;99446.30;105149;1260;73815;-52
2023/07/13 10:53:42;;;;;;;3.50;0.80;;;;;;;28.22;100.00;99441.38;104824;1257;66878;-50
2023/07/13 10:56:26;;;;;;;0.80;0.70;;;;;;;28.22;100.00;99432.70;105778;1255;72674;-52
2023/07/13 10:59:15;;;;;;;0.70;0.70;;;;;;;28.22;100.00;99435.21;104847;1262;60578;-51
2023/07/13 11:01:48;;;;;;;2.90;0.80;;;;;;;28.23;100.00;99432.37;109058;1253;58756;-53
2023/07/13 11:04:16;;;;;;;2.20;0.70;;;;;;;28.25;100.00;99428.38;105293;1259;72628;-50
2023/07/13 11:06:46;;;;;;;2.20;0.60;;;;;;;28.28;100.00;99423.60;104719;1259;67215;-50
2023/07/13 11:09:38;;;;;;;1.20;1.00;;;;;;;28.31;100.00;99419.14;104895;1260;72724;-50
2023/07/13 11:12:09;;;;;;;2.00;0.70;;;;;;;28.35;100.00;99410.86;109111;1254;58789;-53
2023/07/13 11:14:41;;;;;;;2.80;0.70;;;;;;;28.38;100.00;99415.05;109173;1254;58776;-53
2023/07/13 11:17:27;;;;;;;2.20;0.60;;;;;;;28.41;100.00;99409.31;109011;1254;73853;-52
2023/07/13 11:20:08;;;;;;;2.50;0.90;;;;;;;28.45;100.00;99411.65;109050;1254;65510;-52
2023/07/13 11:22:49;;;;;;;1.20;0.70;;;;;;;28.49;100.00;99414.77;105012;1252;71638;-50
2023/07/13 11:25:20;;;;;;;1.50;1.10;;;;;;;28.51;100.00;99418.15;108961;1254;58896;-52
2023/07/13 11:27:51;;;;;;;2.20;1.30;;;;;;;28.54;100.00;99424.32;109010;1254;58779;-53
2023/07/13 11:30:31;;;;;;;3.90;0.80;;;;;;;28.52;100.00;99431.29;109023;1253;72449;-53
2023/07/13 11:33:22;;;;;;;1.80;0.80;;;;;;;28.52;100.00;99430.56;108944;1254;66789;-53